Time;durP1;ratioP1;P1;durP2;ratioP2;P2;SDS_P1;SDS_P2;PMS_P1;PMS_P2;Temp;Humidity;BMP_temperature;BMP_pressure;BME280_temperature;BME280_humidity;BME280_pressure;Samples;Min_cycle;Max_cycle;Signal;HPM_P1;HPM_P2
2021/03/16 00:01:32;;;;;;;10.93;10.03;;;2.00;80.00;;;;;;5209134;28;20018;-69
2021/03/16 00:04:10;;;;;;;10.70;9.77;;;2.00;79.90;;;;;;5211640;28;20287;-69
2021/03/16 00:07:04;;;;;;;10.80;9.90;;;2.00;80.10;;;;;;5200354;28;20041;-68
2021/03/16 00:09:36;;;;;;;10.20;9.30;;;2.00;80.60;;;;;;5210350;28;20073;-67
2021/03/16 00:12:08;;;;;;;10.30;9.40;;;2.10;80.40;;;;;;5209397;28;20077;-67
2021/03/16 00:14:40;;;;;;;11.60;10.27;;;2.10;80.00;;;;;;5210147;28;20055;-66
2021/03/16 00:17:12;;;;;;;11.55;10.48;;;2.10;80.50;;;;;;5214065;28;20048;-69
2021/03/16 00:19:45;;;;;;;10.20;9.40;;;2.00;80.70;;;;;;5212931;28;20041;-67
2021/03/16 00:22:17;;;;;;;10.65;9.75;;;2.00;80.60;;;;;;5195076;28;20592;-68
2021/03/16 00:24:48;;;;;;;10.70;9.88;;;2.00;80.80;;;;;;5215692;28;20128;-68
2021/03/16 00:27:19;;;;;;;10.57;9.77;;;2.00;80.30;;;;;;5213017;28;20044;-68
2021/03/16 00:29:51;;;;;;;10.07;9.20;;;2.00;79.70;;;;;;5216116;28;20045;-67
2021/03/16 00:32:22;;;;;;;10.70;9.80;;;1.90;80.30;;;;;;5213869;28;20072;-69
2021/03/16 00:34:54;;;;;;;10.57;9.77;;;1.90;81.00;;;;;;5214808;28;20052;-68
2021/03/16 00:37:25;;;;;;;10.10;9.30;;;1.80;81.70;;;;;;5206066;28;20121;-66
2021/03/16 00:39:56;;;;;;;10.38;9.48;;;1.80;81.70;;;;;;5213956;28;20640;-67
2021/03/16 00:42:28;;;;;;;10.55;9.65;;;1.60;80.50;;;;;;5211960;28;20082;-69
2021/03/16 00:44:59;;;;;;;10.23;9.43;;;1.60;79.70;;;;;;5215202;28;20095;-68
2021/03/16 00:47:31;;;;;;;10.02;9.23;;;1.70;80.10;;;;;;5210099;28;20123;-69
2021/03/16 00:50:05;;;;;;;10.30;9.40;;;1.70;80.10;;;;;;5212011;28;20064;-69
2021/03/16 00:52:37;;;;;;;9.98;9.18;;;1.80;81.40;;;;;;5213276;28;20045;-69
2021/03/16 00:55:10;;;;;;;10.30;9.50;;;1.80;80.90;;;;;;5210842;28;20132;-67
2021/03/16 00:57:41;;;;;;;10.50;9.52;;;1.80;80.90;;;;;;5213021;28;20053;-70
2021/03/16 01:00:13;;;;;;;10.40;9.45;;;1.80;80.80;;;;;;5216758;28;20064;-68
2021/03/16 01:02:45;;;;;;;10.43;9.52;;;1.70;80.90;;;;;;5217402;28;20051;-67
2021/03/16 01:05:17;;;;;;;10.43;9.63;;;1.60;80.70;;;;;;5217486;28;20052;-67
2021/03/16 01:07:49;;;;;;;10.45;9.65;;;1.60;81.00;;;;;;5214290;28;20549;-67
2021/03/16 01:10:23;;;;;;;10.30;9.50;;;1.70;80.80;;;;;;5215905;28;20060;-67
2021/03/16 01:12:54;;;;;;;10.30;9.40;;;1.60;80.00;;;;;;5213074;28;20037;-67
2021/03/16 01:15:26;;;;;;;10.80;9.90;;;1.70;79.40;;;;;;5214271;28;20180;-67
2021/03/16 01:17:57;;;;;;;10.60;9.70;;;1.60;79.20;;;;;;5212552;28;20057;-67
2021/03/16 01:20:29;;;;;;;11.38;10.48;;;1.70;80.50;;;;;;5216496;28;20041;-68
2021/03/16 01:23:00;;;;;;;11.50;10.43;;;1.70;80.00;;;;;;5217321;28;20134;-68
2021/03/16 01:25:32;;;;;;;12.15;10.90;;;1.70;79.50;;;;;;5216608;28;20103;-67
2021/03/16 01:28:05;;;;;;;11.30;10.23;;;1.60;77.20;;;;;;5217279;28;20049;-67
2021/03/16 01:30:36;;;;;;;11.95;10.80;;;1.60;77.90;;;;;;5205309;28;20099;-67
2021/03/16 01:33:08;;;;;;;12.48;10.73;;;1.50;77.40;;;;;;5216114;28;20106;-67
2021/03/16 01:35:39;;;;;;;11.68;10.57;;;1.50;77.60;;;;;;5215008;28;20073;-67
2021/03/16 01:38:11;;;;;;;11.88;10.68;;;1.50;77.80;;;;;;5214847;28;20511;-67
2021/03/16 01:40:43;;;;;;;11.07;10.07;;;1.50;78.40;;;;;;5213958;28;20049;-69
2021/03/16 01:43:18;;;;;;;11.93;10.90;;;1.40;77.60;;;;;;5216141;28;20750;-66
2021/03/16 01:45:51;;;;;;;11.80;10.85;;;1.40;77.30;;;;;;5217099;28;20076;-68
2021/03/16 01:48:32;;;;;;;11.88;10.68;;;1.50;77.60;;;;;;5212474;28;20395;-67
2021/03/16 01:51:07;;;;;;;11.60;10.57;;;1.50;77.80;;;;;;5215270;28;20087;-70
2021/03/16 01:53:42;;;;;;;11.48;10.48;;;1.50;77.00;;;;;;5215493;28;20299;-66
2021/03/16 01:56:28;;;;;;;11.48;10.57;;;1.60;76.00;;;;;;5209386;28;20053;-67
2021/03/16 01:59:18;;;;;;;11.88;10.88;;;1.50;77.10;;;;;;5214788;28;20056;-68
2021/03/16 02:02:08;;;;;;;12.27;11.20;;;1.50;77.20;;;;;;5207054;28;20110;-66
2021/03/16 02:04:59;;;;;;;12.23;11.18;;;1.60;76.30;;;;;;5215050;28;20604;-69
2021/03/16 02:07:58;;;;;;;11.85;10.75;;;1.60;76.80;;;;;;5216440;28;20105;-67
2021/03/16 02:11:13;;;;;;;12.85;11.60;;;1.50;75.60;;;;;;5211741;28;20052;-68
2021/03/16 02:14:26;;;;;;;12.18;11.07;;;1.60;76.30;;;;;;5217860;28;20137;-68
2021/03/16 02:17:23;;;;;;;12.60;11.40;;;1.60;75.40;;;;;;5213434;28;20064;-68
2021/03/16 02:20:25;;;;;;;12.13;10.90;;;1.70;76.30;;;;;;5216288;28;20067;-68
2021/03/16 02:23:23;;;;;;;11.68;10.68;;;1.60;76.30;;;;;;5216392;28;20041;-68
2021/03/16 02:26:18;;;;;;;12.95;11.30;;;1.60;77.20;;;;;;5216277;28;20175;-68
2021/03/16 02:29:21;;;;;;;11.65;10.55;;;1.60;76.70;;;;;;5217222;28;20194;-67
2021/03/16 02:32:24;;;;;;;12.38;11.27;;;1.60;77.00;;;;;;5214671;28;20521;-68
2021/03/16 02:35:16;;;;;;;11.95;10.85;;;1.60;76.40;;;;;;5209008;28;20045;-68
2021/03/16 02:38:09;;;;;;;12.00;11.00;;;1.60;76.50;;;;;;5216451;28;20049;-68
2021/03/16 02:41:01;;;;;;;12.25;11.15;;;1.70;76.70;;;;;;5215744;28;20049;-68
2021/03/16 02:43:51;;;;;;;11.93;10.82;;;1.50;78.90;;;;;;5213806;28;20052;-67
2021/03/16 02:46:44;;;;;;;12.20;11.00;;;1.50;78.40;;;;;;5211741;28;20044;-67
2021/03/16 02:49:42;;;;;;;12.10;11.02;;;1.60;78.90;;;;;;5215109;28;20079;-68
2021/03/16 02:52:33;;;;;;;12.10;11.02;;;1.60;78.60;;;;;;5211525;28;20048;-69
2021/03/16 02:55:23;;;;;;;12.63;11.52;;;1.60;78.10;;;;;;5214420;28;20467;-66
2021/03/16 02:58:14;;;;;;;;;;;1.60;78.60;;;;;;5217257;28;20525;-68
2021/03/16 03:01:05;;;;;;;11.65;10.63;;;1.60;77.30;;;;;;5212967;28;20301;-67
2021/03/16 03:03:59;;;;;;;11.43;10.35;;;1.50;75.20;;;;;;5211157;28;20043;-68
2021/03/16 03:06:50;;;;;;;11.93;10.82;;;1.50;75.90;;;;;;5212413;28;20051;-67
2021/03/16 03:09:40;;;;;;;12.20;10.20;;;1.40;76.10;;;;;;5216327;28;20059;-67
2021/03/16 03:12:30;;;;;;;11.18;10.07;;;1.40;75.30;;;;;;5214056;28;20619;-67
2021/03/16 03:15:20;;;;;;;11.23;10.13;;;1.50;73.90;;;;;;5213935;28;20204;-67
2021/03/16 03:18:10;;;;;;;11.45;10.35;;;1.50;75.00;;;;;;5215701;28;20498;-68
2021/03/16 03:21:12;;;;;;;11.55;10.35;;;1.50;74.20;;;;;;5213007;28;20506;-67
2021/03/16 03:24:07;;;;;;;11.13;10.15;;;1.40;73.40;;;;;;5216419;28;20052;-68
2021/03/16 03:27:08;;;;;;;11.60;10.52;;;1.40;74.50;;;;;;5215695;28;20122;-67
2021/03/16 03:30:00;;;;;;;11.32;10.23;;;1.40;74.80;;;;;;5214063;28;20043;-67
2021/03/16 03:32:56;;;;;;;12.48;11.38;;;1.40;76.70;;;;;;5211035;28;20110;-67
2021/03/16 03:35:46;;;;;;;12.57;11.48;;;1.50;77.40;;;;;;5215371;28;20190;-67
2021/03/16 03:38:39;;;;;;;11.85;10.38;;;1.50;77.90;;;;;;5215187;28;20102;-67
2021/03/16 03:41:30;;;;;;;11.77;10.63;;;1.40;78.30;;;;;;5215417;28;20176;-68
2021/03/16 03:44:22;;;;;;;11.82;10.60;;;1.40;77.30;;;;;;5215429;28;20048;-67
2021/03/16 03:47:14;;;;;;;13.32;11.07;;;1.50;76.90;;;;;;5212047;28;20138;-67
2021/03/16 03:50:06;;;;;;;11.93;10.82;;;1.40;77.80;;;;;;5210248;28;20064;-68
2021/03/16 03:52:58;;;;;;;11.73;10.52;;;1.40;76.50;;;;;;5215881;28;20049;-67
2021/03/16 03:55:48;;;;;;;11.25;10.05;;;1.40;75.70;;;;;;5210298;28;20044;-67
2021/03/16 03:58:39;;;;;;;11.82;10.63;;;1.50;76.20;;;;;;5213444;28;20130;-67
2021/03/16 04:01:30;;;;;;;12.13;10.75;;;1.50;75.70;;;;;;5212680;28;20107;-68
2021/03/16 04:04:21;;;;;;;11.43;10.43;;;1.50;76.10;;;;;;5213906;28;20094;-67
2021/03/16 04:07:12;;;;;;;11.10;10.15;;;1.50;76.40;;;;;;5211658;28;20044;-67
2021/03/16 04:10:07;;;;;;;11.77;10.80;;;1.50;74.60;;;;;;5215523;28;20040;-67
2021/03/16 04:12:58;;;;;;;11.27;10.38;;;1.50;73.90;;;;;;5214679;28;20578;-68
2021/03/16 04:15:48;;;;;;;10.63;9.70;;;1.50;75.60;;;;;;5210301;28;20099;-68
2021/03/16 04:18:39;;;;;;;12.20;10.80;;;1.50;73.00;;;;;;5215846;28;20056;-67
2021/03/16 04:21:29;;;;;;;10.77;9.85;;;1.40;72.70;;;;;;5212762;28;20067;-67
2021/03/16 04:24:20;;;;;;;11.07;10.05;;;1.40;72.80;;;;;;5216064;28;20487;-67
2021/03/16 04:27:11;;;;;;;10.75;9.65;;;1.50;73.50;;;;;;5215342;28;20045;-67
2021/03/16 04:30:00;;;;;;;10.52;9.63;;;1.50;74.10;;;;;;5213120;28;20589;-67
2021/03/16 04:32:51;;;;;;;11.40;10.40;;;1.40;73.70;;;;;;5211859;28;20447;-66
2021/03/16 04:35:41;;;;;;;;;;;1.40;74.40;;;;;;5219736;28;20529;-68
2021/03/16 04:38:31;;;;;;;10.87;9.93;;;1.50;75.00;;;;;;5217586;28;19931;-69
2021/03/16 04:41:21;;;;;;;11.77;10.68;;;1.40;75.80;;;;;;5216133;28;20053;-67
2021/03/16 04:44:10;;;;;;;10.90;9.90;;;1.40;76.50;;;;;;5210284;28;20087;-68
2021/03/16 04:47:01;;;;;;;10.20;9.27;;;1.30;78.30;;;;;;5217658;28;20060;-68
2021/03/16 04:49:51;;;;;;;10.10;9.10;;;1.20;78.20;;;;;;5217889;28;20060;-66
2021/03/16 04:52:41;;;;;;;20.13;9.40;;;1.00;77.70;;;;;;5203459;28;20048;-67
2021/03/16 04:55:34;;;;;;;10.13;9.23;;;0.80;75.00;;;;;;5216919;28;20095;-68
2021/03/16 04:58:23;;;;;;;11.60;10.38;;;0.70;76.70;;;;;;5219223;28;20168;-66
2021/03/16 05:01:15;;;;;;;10.38;9.40;;;0.80;77.30;;;;;;5217638;28;20564;-67
2021/03/16 05:04:10;;;;;;;9.93;9.13;;;0.80;76.70;;;;;;5214361;28;20053;-68
2021/03/16 05:07:00;;;;;;;10.75;9.75;;;0.80;77.30;;;;;;5216575;28;20037;-67
2021/03/16 05:09:50;;;;;;;10.52;9.63;;;0.90;77.80;;;;;;5218567;28;20678;-66
2021/03/16 05:12:40;;;;;;;9.93;9.02;;;0.90;76.50;;;;;;5215568;28;20092;-67
2021/03/16 05:15:30;;;;;;;10.27;9.38;;;0.90;76.20;;;;;;5215486;28;20138;-67
2021/03/16 05:18:20;;;;;;;10.52;9.55;;;0.90;75.70;;;;;;5219510;28;20128;-67
2021/03/16 05:21:10;;;;;;;10.15;9.30;;;1.00;75.80;;;;;;5210889;28;20052;-66
2021/03/16 05:24:00;;;;;;;10.35;9.45;;;1.00;75.70;;;;;;5212144;28;20589;-67
2021/03/16 05:26:50;;;;;;;11.35;10.32;;;0.90;74.70;;;;;;5215584;28;20037;-67
2021/03/16 05:29:40;;;;;;;10.55;9.60;;;1.00;75.80;;;;;;5215229;28;20037;-67
2021/03/16 05:32:30;;;;;;;10.73;9.73;;;1.00;75.30;;;;;;5215390;28;20801;-66
2021/03/16 05:35:21;;;;;;;10.50;9.55;;;1.00;75.40;;;;;;5218348;28;20596;-67
2021/03/16 05:38:11;;;;;;;10.20;9.30;;;1.10;75.80;;;;;;5217667;28;20048;-68
2021/03/16 05:41:01;;;;;;;10.02;9.23;;;1.10;75.70;;;;;;5215832;28;20044;-68
2021/03/16 05:43:51;;;;;;;;;;;1.00;75.20;;;;;;5219572;28;20086;-66
2021/03/16 05:46:42;;;;;;;11.15;10.10;;;1.00;76.60;;;;;;5215006;28;19932;-67
2021/03/16 05:49:33;;;;;;;10.57;9.63;;;1.10;77.50;;;;;;5214848;28;20064;-68
2021/03/16 05:52:25;;;;;;;10.63;9.73;;;1.10;76.50;;;;;;5217939;28;20049;-67
2021/03/16 05:55:15;;;;;;;10.27;9.35;;;1.10;76.30;;;;;;5211601;28;20052;-66
2021/03/16 05:58:05;;;;;;;10.40;9.50;;;1.20;76.90;;;;;;5215229;28;20056;-68
2021/03/16 06:00:55;;;;;;;9.80;8.90;;;1.20;76.60;;;;;;5217317;28;20033;-67
2021/03/16 06:03:48;;;;;;;10.10;9.15;;;1.30;76.20;;;;;;5215586;28;20051;-67
2021/03/16 06:06:39;;;;;;;9.98;9.07;;;1.30;76.20;;;;;;5205782;28;21507;-67
2021/03/16 06:09:29;;;;;;;9.20;8.32;;;1.30;74.70;;;;;;5204095;28;20089;-66
2021/03/16 06:12:32;;;;;;;10.10;9.30;;;1.40;74.30;;;;;;5200507;28;20090;-67
2021/03/16 06:15:23;;;;;;;9.38;8.57;;;1.40;74.00;;;;;;5201257;28;20056;-68
2021/03/16 06:18:25;;;;;;;9.75;8.95;;;1.40;73.50;;;;;;5203731;28;20450;-67
2021/03/16 06:21:22;;;;;;;9.15;8.45;;;1.50;74.00;;;;;;5208461;28;20113;-67
2021/03/16 06:24:15;;;;;;;9.02;8.13;;;1.60;72.60;;;;;;5206816;28;20102;-69
2021/03/16 06:27:06;;;;;;;9.38;8.57;;;1.50;70.80;;;;;;5201169;28;20041;-67
2021/03/16 06:30:10;;;;;;;9.55;8.52;;;1.60;72.20;;;;;;5195469;28;20182;-67
2021/03/16 06:33:00;;;;;;;11.30;8.88;;;1.60;72.10;;;;;;5202660;28;20090;-68
2021/03/16 06:36:05;;;;;;;9.05;8.25;;;1.50;74.20;;;;;;5206819;28;20044;-67
2021/03/16 06:38:55;;;;;;;13.23;9.25;;;1.40;72.40;;;;;;5206872;28;20671;-68
2021/03/16 06:41:45;;;;;;;9.27;8.48;;;1.40;72.00;;;;;;5207332;28;20174;-66
2021/03/16 06:44:35;;;;;;;9.18;8.38;;;1.50;74.70;;;;;;5210023;28;20052;-67
2021/03/16 06:47:26;;;;;;;9.43;8.63;;;1.40;75.90;;;;;;5210649;28;20104;-67
2021/03/16 06:50:26;;;;;;;;;;;1.30;76.40;;;;;;5198108;28;20055;-66
2021/03/16 06:53:19;;;;;;;9.75;8.70;;;1.20;77.20;;;;;;5210749;28;19929;-68
2021/03/16 06:56:09;;;;;;;9.75;8.93;;;1.10;77.60;;;;;;5212728;28;20135;-67
2021/03/16 06:58:59;;;;;;;9.95;9.05;;;1.20;77.80;;;;;;5215545;28;20583;-68
2021/03/16 07:01:50;;;;;;;9.63;8.73;;;1.30;77.40;;;;;;5213474;28;20065;-66
2021/03/16 07:04:44;;;;;;;10.15;8.57;;;1.30;77.50;;;;;;5214256;28;20110;-68
2021/03/16 07:07:36;;;;;;;9.15;8.23;;;1.40;77.00;;;;;;5214859;28;20053;-67
2021/03/16 07:10:29;;;;;;;9.57;8.70;;;1.50;76.50;;;;;;5214219;28;20056;-67
2021/03/16 07:13:19;;;;;;;10.25;9.43;;;1.60;77.00;;;;;;5212603;28;20049;-68
2021/03/16 07:16:10;;;;;;;;;;;1.60;76.50;;;;;;5211756;28;20041;-67
2021/03/16 07:19:04;;;;;;;10.23;9.32;;;1.60;76.20;;;;;;5214974;28;19925;-66
2021/03/16 07:21:56;;;;;;;10.65;9.55;;;1.80;76.20;;;;;;5212803;28;20600;-67
2021/03/16 07:24:47;;;;;;;10.85;9.80;;;1.90;76.20;;;;;;5214512;28;20052;-67
2021/03/16 07:27:37;;;;;;;11.90;10.52;;;1.90;75.80;;;;;;5212278;28;20041;-67
2021/03/16 07:30:28;;;;;;;11.25;10.25;;;1.90;75.30;;;;;;5207614;28;20100;-67
2021/03/16 07:33:18;;;;;;;;;;;2.00;75.40;;;;;;5212720;28;20063;-67
2021/03/16 07:36:08;;;;;;;12.13;11.02;;;2.10;75.30;;;;;;5213059;28;20451;-66
2021/03/16 07:39:02;;;;;;;11.73;10.63;;;2.20;75.10;;;;;;5216403;28;20060;-67
2021/03/16 07:41:53;;;;;;;11.05;9.95;;;2.10;74.70;;;;;;5209667;28;20055;-67
2021/03/16 07:44:43;;;;;;;11.73;10.63;;;2.20;75.30;;;;;;5214338;28;20618;-67
2021/03/16 07:47:35;;;;;;;10.52;9.57;;;2.20;75.40;;;;;;5212924;28;20186;-68
2021/03/16 07:50:31;;;;;;;11.32;10.40;;;2.30;75.20;;;;;;5209610;28;20453;-67
2021/03/16 07:53:28;;;;;;;10.80;9.80;;;2.00;76.20;;;;;;5212891;28;20039;-67
2021/03/16 07:56:25;;;;;;;10.73;9.82;;;1.90;76.30;;;;;;5213891;28;20526;-67
2021/03/16 07:59:31;;;;;;;11.75;10.70;;;2.00;76.60;;;;;;5211201;28;20198;-67
2021/03/16 08:02:31;;;;;;;14.00;12.70;;;2.20;77.40;;;;;;5213109;28;20040;-68
2021/03/16 08:05:22;;;;;;;12.43;11.23;;;2.50;77.30;;;;;;5209273;28;20542;-68
2021/03/16 08:08:19;;;;;;;11.88;10.80;;;2.70;76.70;;;;;;5216405;28;20051;-68
2021/03/16 08:11:12;;;;;;;10.90;10.00;;;2.80;75.80;;;;;;5216098;28;20044;-66
2021/03/16 08:14:03;;;;;;;10.57;9.68;;;2.90;75.40;;;;;;5219016;28;20167;-67
2021/03/16 08:16:53;;;;;;;14.32;12.10;;;3.00;75.10;;;;;;5220024;28;20450;-67
2021/03/16 08:19:44;;;;;;;11.60;10.50;;;3.10;74.90;;;;;;5217985;28;20485;-68
2021/03/16 08:22:34;;;;;;;11.38;10.38;;;3.00;74.20;;;;;;5218111;28;20143;-68
2021/03/16 08:25:25;;;;;;;10.93;10.02;;;3.00;75.30;;;;;;5219427;28;20541;-67
2021/03/16 08:28:18;;;;;;;10.90;10.00;;;3.00;74.80;;;;;;5220596;28;20535;-67
2021/03/16 08:31:08;;;;;;;16.88;12.98;;;2.80;75.00;;;;;;5186333;28;20430;-67
2021/03/16 08:33:59;;;;;;;10.95;10.05;;;2.90;74.90;;;;;;5219516;28;20071;-69
2021/03/16 08:36:49;;;;;;;10.20;9.25;;;2.90;75.20;;;;;;5216682;28;20094;-67
2021/03/16 08:39:41;;;;;;;10.18;9.27;;;3.00;74.50;;;;;;5218494;28;20055;-67
2021/03/16 08:42:31;;;;;;;10.43;9.52;;;3.20;73.80;;;;;;5219016;28;20084;-66
2021/03/16 08:45:33;;;;;;;9.63;8.73;;;3.30;73.30;;;;;;5219067;28;20179;-68
2021/03/16 08:48:33;;;;;;;10.23;9.27;;;3.50;73.40;;;;;;5212216;28;20531;-68
2021/03/16 08:51:25;;;;;;;10.82;9.88;;;3.60;73.90;;;;;;5217510;28;20537;-67
2021/03/16 08:54:26;;;;;;;10.18;9.38;;;4.00;74.10;;;;;;5217696;28;20525;-68
2021/03/16 08:57:29;;;;;;;12.70;11.60;;;4.10;72.30;;;;;;5217928;28;20041;-68
2021/03/16 09:00:27;;;;;;;10.80;9.90;;;4.30;72.10;;;;;;5217702;28;20037;-68
2021/03/16 09:03:30;;;;;;;10.07;9.27;;;4.40;70.80;;;;;;5216601;28;20138;-68
2021/03/16 09:06:22;;;;;;;10.40;9.50;;;4.50;68.70;;;;;;5215105;28;20210;-68
2021/03/16 09:09:11;;;;;;;;;;;4.60;67.40;;;;;;5218283;28;20037;-68
2021/03/16 09:12:02;;;;;;;10.57;9.60;;;4.40;67.90;;;;;;5216405;28;19928;-68
2021/03/16 09:14:52;;;;;;;11.13;9.90;;;4.50;66.70;;;;;;5213994;28;20114;-69
2021/03/16 09:17:44;;;;;;;;;;;4.30;68.00;;;;;;5217146;28;20419;-67
2021/03/16 09:20:39;;;;;;;9.73;8.93;;;4.00;69.20;;;;;;5212825;28;19935;-67
2021/03/16 09:23:29;;;;;;;11.65;10.65;;;4.10;69.60;;;;;;5212958;28;20124;-67
2021/03/16 09:26:26;;;;;;;10.85;9.85;;;4.50;69.20;;;;;;5215077;28;20048;-68
2021/03/16 09:29:16;;;;;;;10.52;9.63;;;4.60;64.50;;;;;;5218162;28;20044;-68
2021/03/16 09:32:11;;;;;;;10.65;9.75;;;4.70;65.10;;;;;;5215191;28;20060;-67
2021/03/16 09:35:02;;;;;;;10.02;9.02;;;4.80;63.20;;;;;;5216312;28;20102;-67
2021/03/16 09:37:53;;;;;;;10.55;9.60;;;4.90;65.50;;;;;;5215125;28;20053;-68
2021/03/16 09:40:44;;;;;;;10.77;9.88;;;5.00;65.20;;;;;;5217123;28;20044;-69
2021/03/16 09:43:37;;;;;;;10.52;9.50;;;5.20;64.40;;;;;;5213804;28;20053;-68
2021/03/16 09:46:13;;;;;;;10.57;9.60;;;4.90;61.90;;;;;;5217084;28;20053;-68
2021/03/16 09:48:48;;;;;;;10.13;9.13;;;4.90;64.50;;;;;;5211660;28;20037;-67
2021/03/16 09:51:22;;;;;;;11.90;9.50;;;4.90;61.90;;;;;;5217220;28;20130;-67
2021/03/16 09:53:58;;;;;;;10.90;9.90;;;4.60;59.60;;;;;;5213649;28;20040;-68
2021/03/16 09:56:36;;;;;;;11.05;9.90;;;4.60;63.70;;;;;;5212924;28;20553;-67
2021/03/16 09:59:12;;;;;;;10.93;10.00;;;4.80;62.60;;;;;;5214816;28;20457;-68
2021/03/16 10:02:01;;;;;;;10.75;9.85;;;5.10;61.40;;;;;;5216519;28;20051;-69
2021/03/16 10:04:50;;;;;;;10.40;9.50;;;5.30;62.50;;;;;;5215287;28;20049;-68
2021/03/16 10:07:29;;;;;;;12.68;11.50;;;5.50;62.30;;;;;;5213827;28;20556;-68
2021/03/16 10:10:19;;;;;;;11.60;10.60;;;5.60;59.00;;;;;;5217600;28;20041;-68
2021/03/16 10:13:03;;;;;;;10.60;9.60;;;5.60;60.20;;;;;;5215485;28;20056;-68
2021/03/16 10:15:37;;;;;;;10.95;10.05;;;5.70;61.40;;;;;;5214284;28;20678;-68
2021/03/16 10:18:11;;;;;;;10.32;9.52;;;5.70;59.70;;;;;;5215716;28;20048;-69
2021/03/16 10:20:45;;;;;;;11.07;10.18;;;5.70;61.20;;;;;;5215489;28;20041;-67
2021/03/16 10:23:19;;;;;;;10.70;9.80;;;5.80;58.70;;;;;;5217588;28;20695;-68
2021/03/16 10:26:07;;;;;;;11.35;10.35;;;5.90;60.40;;;;;;5215845;28;20495;-69
2021/03/16 10:28:41;;;;;;;11.15;10.20;;;5.80;56.80;;;;;;5218058;28;20102;-69
2021/03/16 10:31:21;;;;;;;10.77;9.88;;;5.70;60.50;;;;;;5208406;28;20646;-69
2021/03/16 10:33:55;;;;;;;11.40;10.40;;;5.80;61.80;;;;;;5217967;28;20341;-67
2021/03/16 10:36:30;;;;;;;11.57;10.43;;;5.80;58.90;;;;;;5212873;28;20077;-67
2021/03/16 10:39:03;;;;;;;11.00;10.10;;;5.50;63.00;;;;;;5215863;28;20131;-68
2021/03/16 10:41:34;;;;;;;10.82;9.85;;;5.30;62.70;;;;;;5212002;28;20132;-68
2021/03/16 10:44:06;;;;;;;10.52;9.70;;;5.40;63.60;;;;;;5216987;28;20120;-68
2021/03/16 10:46:37;;;;;;;11.10;10.10;;;5.60;63.70;;;;;;5213434;28;20050;-69
2021/03/16 10:49:09;;;;;;;11.10;10.00;;;5.90;63.10;;;;;;5213786;28;20052;-67
2021/03/16 10:51:40;;;;;;;18.85;15.45;;;6.20;64.50;;;;;;5213495;28;20041;-68
2021/03/16 10:54:12;;;;;;;11.20;10.13;;;6.40;62.80;;;;;;5215671;28;20068;-69
2021/03/16 10:56:43;;;;;;;11.07;10.18;;;6.30;62.90;;;;;;5210366;28;20053;-68
2021/03/16 10:59:14;;;;;;;12.13;11.13;;;6.40;61.40;;;;;;5213560;28;20048;-69
2021/03/16 11:01:46;;;;;;;14.98;12.98;;;6.60;62.50;;;;;;5208950;28;20044;-69
2021/03/16 11:04:20;;;;;;;12.13;11.13;;;6.80;63.50;;;;;;5214241;28;20044;-68
2021/03/16 11:06:52;;;;;;;11.85;10.95;;;6.80;61.80;;;;;;5210782;28;20041;-68
2021/03/16 11:09:23;;;;;;;11.82;10.77;;;6.30;63.20;;;;;;5216158;28;20119;-70
2021/03/16 11:11:55;;;;;;;13.27;12.10;;;6.20;64.80;;;;;;5213443;28;20142;-69
2021/03/16 11:14:26;;;;;;;12.05;11.05;;;6.10;63.40;;;;;;5210746;28;20519;-68
2021/03/16 11:16:58;;;;;;;11.77;10.85;;;5.80;64.10;;;;;;5216582;28;20560;-69
2021/03/16 11:19:29;;;;;;;12.32;11.13;;;5.70;64.80;;;;;;5214133;28;20045;-68
2021/03/16 11:22:01;;;;;;;11.98;10.82;;;5.50;65.00;;;;;;5215959;28;20056;-68
2021/03/16 11:24:32;;;;;;;12.55;11.55;;;5.60;63.90;;;;;;5214604;28;20045;-69
2021/03/16 11:27:14;;;;;;;12.48;11.38;;;5.70;65.00;;;;;;5216065;28;20641;-68
2021/03/16 11:29:46;;;;;;;11.80;10.75;;;5.80;64.00;;;;;;5213704;28;20077;-69
2021/03/16 11:32:17;;;;;;;11.20;10.30;;;5.80;63.40;;;;;;5211453;28;20049;-67
2021/03/16 11:35:08;;;;;;;11.40;10.50;;;5.60;64.30;;;;;;5209754;28;20088;-67
2021/03/16 11:37:58;;;;;;;11.75;10.75;;;5.50;64.40;;;;;;5203038;28;20599;-66
2021/03/16 11:40:49;;;;;;;11.07;10.07;;;5.10;65.50;;;;;;5200931;28;20047;-67
2021/03/16 11:43:39;;;;;;;10.85;9.82;;;4.80;65.60;;;;;;5202315;28;20781;-66
2021/03/16 11:46:29;;;;;;;10.35;9.32;;;4.60;66.40;;;;;;5201911;28;20102;-66
2021/03/16 11:49:19;;;;;;;10.38;9.48;;;4.30;67.00;;;;;;5205839;28;20130;-67
2021/03/16 11:52:09;;;;;;;10.43;9.52;;;4.20;68.10;;;;;;5200976;28;20222;-66
2021/03/16 11:54:59;;;;;;;12.50;11.50;;;4.30;68.40;;;;;;5201496;28;20052;-67
2021/03/16 11:57:49;;;;;;;10.13;9.25;;;4.40;68.60;;;;;;5210052;28;20553;-67
2021/03/16 12:00:39;;;;;;;12.25;11.15;;;4.40;69.20;;;;;;5211632;28;20048;-68
2021/03/16 12:03:29;;;;;;;10.68;9.77;;;4.30;69.40;;;;;;5210517;28;20114;-67
2021/03/16 12:06:20;;;;;;;10.73;9.80;;;4.30;68.90;;;;;;5212890;28;20052;-68
2021/03/16 12:09:10;;;;;;;10.60;9.75;;;4.20;68.70;;;;;;5212227;28;20103;-67
2021/03/16 12:12:00;;;;;;;10.82;9.93;;;4.10;69.20;;;;;;5210769;28;20064;-66
2021/03/16 12:14:50;;;;;;;;;;;4.20;68.70;;;;;;5211871;28;20090;-67
2021/03/16 12:17:40;;;;;;;9.13;8.32;;;4.30;69.10;;;;;;5212243;28;21728;-68
2021/03/16 12:20:31;;;;;;;9.40;8.55;;;4.30;68.20;;;;;;5214399;28;20083;-69
2021/03/16 12:23:23;;;;;;;11.07;10.07;;;4.30;68.40;;;;;;5213054;28;20134;-66
2021/03/16 12:26:13;;;;;;;9.27;8.57;;;4.20;68.60;;;;;;5213885;28;20040;-66
2021/03/16 12:29:03;;;;;;;9.45;8.57;;;4.10;68.80;;;;;;5211100;28;20560;-68
2021/03/16 12:31:53;;;;;;;10.25;9.25;;;4.10;69.30;;;;;;5210944;28;20557;-66
2021/03/16 12:34:56;;;;;;;9.77;8.98;;;4.20;69.40;;;;;;5208220;28;20511;-67
2021/03/16 12:37:46;;;;;;;9.43;8.68;;;4.40;69.20;;;;;;5208569;28;20139;-67
2021/03/16 12:40:36;;;;;;;;;;;4.70;68.70;;;;;;5212130;28;20182;-67
2021/03/16 12:43:27;;;;;;;9.95;9.02;;;5.00;67.80;;;;;;5210848;28;19975;-67
2021/03/16 12:46:17;;;;;;;10.55;9.68;;;5.00;68.10;;;;;;5205688;28;20651;-69
2021/03/16 12:49:07;;;;;;;10.90;9.90;;;5.00;67.90;;;;;;5206859;28;20587;-67
2021/03/16 12:51:57;;;;;;;10.45;9.38;;;5.00;68.50;;;;;;5201837;28;20044;-67
2021/03/16 12:54:47;;;;;;;10.60;9.70;;;5.20;68.10;;;;;;5205785;28;20043;-67
2021/03/16 12:57:37;;;;;;;11.13;10.05;;;5.40;66.50;;;;;;5207234;28;20131;-68
2021/03/16 13:00:27;;;;;;;11.15;10.10;;;5.60;65.80;;;;;;5213141;28;20595;-67
2021/03/16 13:03:18;;;;;;;10.60;9.65;;;5.70;67.40;;;;;;5214165;28;20052;-68
2021/03/16 13:06:09;;;;;;;10.98;10.07;;;5.80;66.00;;;;;;5208188;28;20045;-67
2021/03/16 13:08:59;;;;;;;10.50;9.55;;;5.60;65.20;;;;;;5214279;28;20492;-67
2021/03/16 13:11:49;;;;;;;10.48;9.52;;;5.40;65.70;;;;;;5198780;28;20044;-68
2021/03/16 13:14:39;;;;;;;10.20;9.30;;;5.00;66.40;;;;;;5204744;28;20837;-67
2021/03/16 13:17:29;;;;;;;9.95;9.10;;;4.80;67.30;;;;;;5217067;28;20187;-67
2021/03/16 13:20:20;;;;;;;10.20;9.30;;;4.70;67.80;;;;;;5213702;28;20130;-67
2021/03/16 13:23:09;;;;;;;10.48;9.57;;;4.50;68.70;;;;;;5212732;28;20044;-66
2021/03/16 13:26:00;;;;;;;10.25;9.45;;;4.30;69.90;;;;;;5214342;28;20045;-67
2021/03/16 13:28:50;;;;;;;10.48;9.48;;;4.40;70.10;;;;;;5210437;28;20727;-67
2021/03/16 13:31:40;;;;;;;13.07;11.82;;;4.60;70.20;;;;;;5206487;28;20489;-67
2021/03/16 13:34:31;;;;;;;14.27;12.75;;;4.90;70.40;;;;;;5211903;28;20138;-68
2021/03/16 13:37:21;;;;;;;11.38;10.38;;;5.20;68.30;;;;;;5212585;28;20044;-68
2021/03/16 13:40:12;;;;;;;10.80;9.90;;;5.20;68.50;;;;;;5213386;28;20518;-66
2021/03/16 13:43:02;;;;;;;10.80;9.90;;;5.30;68.00;;;;;;5218019;28;20907;-68
2021/03/16 13:45:52;;;;;;;10.40;9.50;;;5.50;67.60;;;;;;5210655;28;20066;-65
2021/03/16 13:48:42;;;;;;;11.35;10.35;;;6.00;65.80;;;;;;5207884;28;20060;-66
2021/03/16 13:51:32;;;;;;;15.18;13.50;;;6.10;65.30;;;;;;5209805;28;20521;-68
2021/03/16 13:54:22;;;;;;;19.63;15.30;;;6.20;63.80;;;;;;5207805;28;20150;-66
2021/03/16 13:57:12;;;;;;;15.38;13.77;;;6.20;64.00;;;;;;5205139;28;20202;-66
2021/03/16 14:00:05;;;;;;;14.40;13.20;;;6.00;64.40;;;;;;5210537;28;20605;-68
2021/03/16 14:02:56;;;;;;;12.45;11.35;;;5.80;64.70;;;;;;5214426;28;20130;-67
2021/03/16 14:05:47;;;;;;;14.65;13.15;;;5.80;65.30;;;;;;5205875;28;20642;-68
2021/03/16 14:08:37;;;;;;;12.38;11.27;;;5.90;65.40;;;;;;5212130;28;20256;-65
2021/03/16 14:11:27;;;;;;;13.88;12.60;;;6.10;65.90;;;;;;5209535;28;20048;-66
2021/03/16 14:14:17;;;;;;;11.25;10.35;;;6.30;65.10;;;;;;5211399;28;20147;-67
2021/03/16 14:17:07;;;;;;;11.38;10.48;;;6.70;62.40;;;;;;5214802;28;20064;-66
2021/03/16 14:19:57;;;;;;;13.25;12.07;;;7.10;62.20;;;;;;5214644;28;20744;-68
2021/03/16 14:22:49;;;;;;;12.07;11.00;;;7.30;61.60;;;;;;5208756;28;20191;-68
2021/03/16 14:25:39;;;;;;;11.20;10.30;;;7.20;61.30;;;;;;5200682;28;20423;-69
2021/03/16 14:28:29;;;;;;;11.18;10.27;;;6.80;61.10;;;;;;5211342;28;20091;-69